createdAt,value
2023-05-21T00:02:04.058Z,74.35
2023-05-21T00:04:33.947Z,74.73
2023-05-21T00:07:02.033Z,74.89
2023-05-21T00:09:29.909Z,74.47
2023-05-21T00:11:57.696Z,74.59
2023-05-21T00:14:25.454Z,74.37
2023-05-21T00:16:54.677Z,74.45
2023-05-21T00:19:22.596Z,74.46
2023-05-21T00:21:50.814Z,75.15
2023-05-21T00:24:18.674Z,74.57
2023-05-21T00:26:46.611Z,74.57
2023-05-21T00:29:14.456Z,74.95
2023-05-21T00:31:42.494Z,74.70
2023-05-21T00:34:11.691Z,74.65
2023-05-21T00:36:40.426Z,74.96
2023-05-21T00:39:08.878Z,74.75
2023-05-21T00:41:38.016Z,74.95
2023-05-21T00:44:06.201Z,75.17
2023-05-21T00:46:34.277Z,74.58
2023-05-21T00:49:02.810Z,74.83
2023-05-21T00:51:32.855Z,74.77
2023-05-21T00:54:01.002Z,74.77
2023-05-21T00:56:28.984Z,74.54
2023-05-21T00:58:58.596Z,74.78
2023-05-21T01:01:26.821Z,75.08
2023-05-21T01:03:57.586Z,75.16
2023-05-21T01:06:25.696Z,74.23
2023-05-21T01:08:56.193Z,74.89
2023-05-21T01:11:31.350Z,75.34
2023-05-21T01:13:59.125Z,75.29
2023-05-21T01:16:26.928Z,75.30
2023-05-21T01:18:54.890Z,75.27
2023-05-21T01:21:28.395Z,75.32
2023-05-21T01:23:57.469Z,75.61
2023-05-21T01:26:25.921Z,76.16
2023-05-21T01:28:53.750Z,76.00
2023-05-21T01:31:27.544Z,75.07
2023-05-21T01:34:01.670Z,74.39
2023-05-21T01:36:35.990Z,74.92
2023-05-21T01:39:10.638Z,74.94
2023-05-21T01:41:43.120Z,75.05
2023-05-21T01:44:11.971Z,75.13
2023-05-21T01:46:40.796Z,75.20
2023-05-21T01:49:10.123Z,76.07
2023-05-21T01:51:38.295Z,74.49
2023-05-21T01:54:07.421Z,75.41
2023-05-21T01:56:37.085Z,75.15
2023-05-21T01:59:05.376Z,74.48
2023-05-21T02:01:33.343Z,75.03
2023-05-21T02:04:01.707Z,76.81
2023-05-21T02:06:31.829Z,76.24
2023-05-21T02:08:59.599Z,75.30
2023-05-21T02:11:29.532Z,75.91
2023-05-21T02:13:58.738Z,75.25
2023-05-21T02:16:27.361Z,75.50
2023-05-21T02:18:57.493Z,75.22
2023-05-21T02:21:25.427Z,76.13
2023-05-21T02:23:53.215Z,75.30
2023-05-21T02:26:22.411Z,76.32
2023-05-21T02:28:52.897Z,76.70
2023-05-21T02:31:23.347Z,77.89
2023-05-21T02:33:51.055Z,76.55
2023-05-21T02:36:19.247Z,76.77
2023-05-21T02:38:47.704Z,76.58
2023-05-21T02:41:15.460Z,76.65
2023-05-21T02:43:43.231Z,75.55
2023-05-21T02:46:12.295Z,75.88
2023-05-21T02:48:40.027Z,75.45
2023-05-21T02:51:07.715Z,77.56
2023-05-21T02:53:35.528Z,76.53
2023-05-21T02:56:03.195Z,76.85
2023-05-21T02:58:30.919Z,77.02
2023-05-21T03:00:58.654Z,77.97
2023-05-21T03:03:28.146Z,76.57
2023-05-21T03:05:56.029Z,76.77
2023-05-21T03:08:24.738Z,76.76
2023-05-21T03:10:52.464Z,77.08
2023-05-21T03:13:20.226Z,77.02
2023-05-21T03:15:47.930Z,76.29
2023-05-21T03:18:16.480Z,76.57
2023-05-21T03:20:45.639Z,76.47
2023-05-21T03:23:16.495Z,76.51
2023-05-21T03:25:45.906Z,76.35
2023-05-21T03:28:13.869Z,76.47
2023-05-21T03:30:41.933Z,76.61
2023-05-21T03:33:11.149Z,76.69
2023-05-21T03:35:39.083Z,76.29
2023-05-21T03:38:08.202Z,76.52
2023-05-21T03:40:35.962Z,76.23
2023-05-21T03:43:03.662Z,75.74
2023-05-21T03:45:31.434Z,76.35
2023-05-21T03:47:59.337Z,75.50
2023-05-21T03:50:27.144Z,75.74
2023-05-21T03:52:54.861Z,75.36
2023-05-21T03:55:24.048Z,75.40
2023-05-21T03:57:51.995Z,76.17
2023-05-21T04:00:20.158Z,75.87
2023-05-21T04:02:48.085Z,76.08
2023-05-21T04:05:15.896Z,75.61
2023-05-21T04:07:46.385Z,75.43
2023-05-21T04:10:14.280Z,75.49
2023-05-21T04:12:43.355Z,76.26
2023-05-21T04:15:12.508Z,75.52
2023-05-21T04:17:40.457Z,76.04
2023-05-21T04:20:09.378Z,74.67
2023-05-21T04:22:37.362Z,75.21
2023-05-21T04:25:05.676Z,76.09
2023-05-21T04:27:34.539Z,75.32
2023-05-21T04:30:04.403Z,75.07
2023-05-21T04:32:33.291Z,74.94
2023-05-21T04:35:02.074Z,74.73
2023-05-21T04:37:31.380Z,75.20
2023-05-21T04:40:01.566Z,75.18
2023-05-21T04:42:30.043Z,75.10
2023-05-21T04:44:59.474Z,75.11
2023-05-21T04:47:30.234Z,74.98
2023-05-21T04:49:59.509Z,74.51
2023-05-21T04:52:28.356Z,75.63
2023-05-21T04:54:56.146Z,74.34
2023-05-21T04:57:24.607Z,75.27
2023-05-21T04:59:52.810Z,74.82
2023-05-21T05:02:20.672Z,75.37
2023-05-21T05:04:49.772Z,75.18
2023-05-21T05:07:18.056Z,75.37
2023-05-21T05:09:45.735Z,75.80
2023-05-21T05:12:13.431Z,75.55
2023-05-21T05:14:41.256Z,74.96
2023-05-21T05:17:12.893Z,76.52
2023-05-21T05:19:40.829Z,75.33
2023-05-21T05:22:11.838Z,74.46
2023-05-21T05:24:41.363Z,74.81
2023-05-21T05:27:09.149Z,74.88
2023-05-21T05:29:36.940Z,74.51
2023-05-21T05:32:04.898Z,73.14
2023-05-21T05:34:33.004Z,73.32
2023-05-21T05:37:02.710Z,73.23
2023-05-21T05:39:31.840Z,73.30
2023-05-21T05:41:59.516Z,73.22
2023-05-21T05:44:27.192Z,71.97
2023-05-21T05:46:54.897Z,70.60
2023-05-21T05:49:22.754Z,69.13
2023-05-21T05:51:50.589Z,68.39
2023-05-21T05:54:19.372Z,67.63
2023-05-21T05:56:48.439Z,68.92
2023-05-21T05:59:16.599Z,67.46
2023-05-21T06:01:44.287Z,66.18
2023-05-21T06:04:12.103Z,64.14
2023-05-21T06:06:39.827Z,65.46
2023-05-21T06:09:07.963Z,63.26
2023-05-21T06:11:35.872Z,63.01
2023-05-21T06:14:05.038Z,63.06
2023-05-21T06:16:32.954Z,62.64
2023-05-21T06:19:01.402Z,62.82
2023-05-21T06:21:29.254Z,63.57
2023-05-21T06:23:56.961Z,63.56
2023-05-21T06:26:24.834Z,63.79
2023-05-21T06:28:52.848Z,63.63
2023-05-21T06:31:22.478Z,62.10
2023-05-21T06:33:50.762Z,62.53
2023-05-21T06:36:18.741Z,62.75
2023-05-21T06:38:46.921Z,63.07
2023-05-21T06:41:14.796Z,61.97
2023-05-21T06:43:42.585Z,62.07
2023-05-21T06:46:10.391Z,62.57
2023-05-21T06:48:39.448Z,63.59
2023-05-21T06:51:07.311Z,63.24
2023-05-21T06:53:35.098Z,63.29
2023-05-21T06:56:02.905Z,64.30
2023-05-21T06:58:31.433Z,63.79
2023-05-21T07:00:59.383Z,64.46
2023-05-21T07:03:27.356Z,63.82
2023-05-21T07:05:57.088Z,63.00
2023-05-21T07:08:24.794Z,63.08
2023-05-21T07:10:52.577Z,62.66
2023-05-21T07:13:20.249Z,61.84
2023-05-21T07:15:48.055Z,61.81
2023-05-21T07:18:16.802Z,61.02
2023-05-21T07:20:44.559Z,61.53
2023-05-21T07:23:13.690Z,62.65
2023-05-21T07:25:41.459Z,63.35
2023-05-21T07:28:09.177Z,63.43
2023-05-21T07:30:37.189Z,63.34
2023-05-21T07:33:05.086Z,62.71
2023-05-21T07:35:32.963Z,61.89
2023-05-21T07:38:00.762Z,62.12
2023-05-21T07:40:29.893Z,60.47
2023-05-21T07:42:57.692Z,59.46
2023-05-21T07:45:25.589Z,59.72
2023-05-21T07:47:53.401Z,59.92
2023-05-21T07:50:21.176Z,60.33
2023-05-21T07:52:49.690Z,60.90
2023-05-21T07:55:17.759Z,60.42
2023-05-21T07:57:47.111Z,60.68
2023-05-21T08:00:15.977Z,58.88
2023-05-21T08:02:49.523Z,59.48
2023-05-21T08:05:17.402Z,57.64
2023-05-21T08:07:45.383Z,58.06
2023-05-21T08:10:13.133Z,57.53
2023-05-21T08:12:40.845Z,57.00
2023-05-21T08:15:11.081Z,58.32
2023-05-21T08:17:38.978Z,56.49
2023-05-21T08:20:08.078Z,55.70
2023-05-21T08:22:35.863Z,54.43
2023-05-21T08:25:03.678Z,53.61
2023-05-21T08:27:31.412Z,52.89
2023-05-21T08:29:59.114Z,53.52
2023-05-21T08:32:28.214Z,53.58
2023-05-21T08:34:56.387Z,51.86
2023-05-21T08:37:24.432Z,51.96
2023-05-21T08:39:52.137Z,50.82
2023-05-21T08:42:36.487Z,50.86
2023-05-21T08:45:07.504Z,50.35
2023-05-21T08:47:37.445Z,49.96
2023-05-21T08:50:06.008Z,49.48
2023-05-21T08:52:33.768Z,49.88
2023-05-21T08:55:02.599Z,50.13
2023-05-21T08:57:32.598Z,50.89
2023-05-21T09:00:01.942Z,50.16
2023-05-21T09:02:30.944Z,48.50
2023-05-21T09:05:03.101Z,48.10
2023-05-21T09:07:36.119Z,46.58
2023-05-21T09:10:06.155Z,47.91
2023-05-21T09:12:33.931Z,48.74
2023-05-21T09:15:02.573Z,46.64
2023-05-21T09:17:30.328Z,45.58
2023-05-21T09:20:14.988Z,46.72
2023-05-21T09:22:43.734Z,46.64
2023-05-21T09:25:12.953Z,45.52
2023-05-21T09:27:41.215Z,45.46
2023-05-21T09:30:12.330Z,46.20
2023-05-21T09:32:40.367Z,45.32
2023-05-21T09:35:09.645Z,45.46
2023-05-21T09:37:44.110Z,45.75
2023-05-21T09:40:14.138Z,44.11
2023-05-21T09:42:43.037Z,44.35
2023-05-21T09:45:12.268Z,42.24
2023-05-21T09:47:44.438Z,42.32
2023-05-21T09:50:12.831Z,42.28
2023-05-21T09:52:42.363Z,43.35
2023-05-21T09:55:12.800Z,43.60
2023-05-21T09:57:45.033Z,42.27
2023-05-21T10:00:20.260Z,42.88
2023-05-21T10:02:49.044Z,42.02
2023-05-21T10:05:17.870Z,41.36
2023-05-21T10:07:51.458Z,40.57
2023-05-21T10:10:21.822Z,41.93
2023-05-21T10:12:55.826Z,42.41
2023-05-21T10:15:25.279Z,42.13
2023-05-21T10:17:54.275Z,42.93
2023-05-21T10:20:23.831Z,42.69
2023-05-21T10:22:53.771Z,41.64
2023-05-21T10:25:22.902Z,40.76
2023-05-21T10:27:50.731Z,40.77
2023-05-21T10:30:19.625Z,41.40
2023-05-21T10:32:49.150Z,40.67
2023-05-21T10:35:17.630Z,40.84
2023-05-21T10:37:46.301Z,40.73
2023-05-21T10:40:15.770Z,44.26
2023-05-21T10:43:03.769Z,44.44
2023-05-21T10:45:46.364Z,43.43
2023-05-21T10:48:27.465Z,42.92
2023-05-21T10:51:09.933Z,45.47
2023-05-21T10:53:52.668Z,45.18
2023-05-21T10:56:25.633Z,44.43
2023-05-21T10:59:08.955Z,44.69
2023-05-21T11:01:39.129Z,43.26
2023-05-21T11:04:07.321Z,42.00
2023-05-21T11:06:35.076Z,42.79
2023-05-21T11:09:03.820Z,41.94
2023-05-21T11:11:48.295Z,41.54
2023-05-21T11:14:35.380Z,41.63
2023-05-21T11:17:04.784Z,42.61
2023-05-21T11:19:38.192Z,43.38
2023-05-21T11:22:11.482Z,43.64
2023-05-21T11:24:40.586Z,43.52
2023-05-21T11:27:10.095Z,43.34
2023-05-21T11:29:46.057Z,43.91
2023-05-21T11:32:20.677Z,44.45
2023-05-21T11:34:49.342Z,44.20
2023-05-21T11:37:29.954Z,44.53
2023-05-21T11:39:59.862Z,44.90
2023-05-21T11:42:33.960Z,44.90
2023-05-21T11:45:03.933Z,43.79
2023-05-21T11:47:32.654Z,45.38
2023-05-21T11:50:02.210Z,43.11
2023-05-21T11:52:30.794Z,43.76
2023-05-21T11:55:00.000Z,46.22
2023-05-21T11:57:31.099Z,44.50
2023-05-21T12:00:11.190Z,44.49
2023-05-21T12:02:38.923Z,42.97
2023-05-21T12:05:10.184Z,46.20
2023-05-21T12:07:38.785Z,43.84
2023-05-21T12:10:08.177Z,42.92
2023-05-21T12:12:50.052Z,41.66
2023-05-21T12:15:21.034Z,41.03
2023-05-21T12:17:52.720Z,41.56
2023-05-21T12:20:21.102Z,41.99
2023-05-21T12:22:49.858Z,41.75
2023-05-21T12:25:19.933Z,42.34
2023-05-21T12:27:47.834Z,40.97
2023-05-21T12:30:16.288Z,39.61
2023-05-21T12:32:45.509Z,39.10
2023-05-21T12:35:22.517Z,40.84
2023-05-21T12:37:51.721Z,40.95
2023-05-21T12:40:20.037Z,40.35
2023-05-21T12:42:47.896Z,41.01
2023-05-21T12:45:18.491Z,40.22
2023-05-21T12:50:23.606Z,39.76
2023-05-21T12:52:55.493Z,39.84
2023-05-21T12:55:25.545Z,39.75
2023-05-21T12:58:02.699Z,39.05
2023-05-21T13:00:30.740Z,39.10
2023-05-21T13:03:01.203Z,39.20
2023-05-21T13:05:28.947Z,41.07
2023-05-21T13:07:56.615Z,40.63
2023-05-21T13:10:24.314Z,41.69
2023-05-21T13:12:52.395Z,41.06
2023-05-21T13:15:20.449Z,41.60
2023-05-21T13:17:50.128Z,41.95
2023-05-21T13:20:21.585Z,40.63
2023-05-21T13:22:51.839Z,40.48
2023-05-21T13:25:21.459Z,39.60
2023-05-21T13:27:50.526Z,39.71
2023-05-21T13:30:20.595Z,40.97
2023-05-21T13:32:49.368Z,41.46
2023-05-21T13:35:18.204Z,40.12
2023-05-21T13:37:47.257Z,40.14
2023-05-21T13:40:16.414Z,40.99
2023-05-21T13:42:45.079Z,40.57
2023-05-21T13:45:15.561Z,40.42
2023-05-21T13:47:43.851Z,39.61
2023-05-21T13:50:12.835Z,39.85
2023-05-21T13:52:40.873Z,39.20
2023-05-21T13:55:11.697Z,40.06
2023-05-21T13:57:40.641Z,39.87
2023-05-21T14:00:12.539Z,39.35
2023-05-21T14:02:40.402Z,39.41
2023-05-21T14:05:08.675Z,39.87
2023-05-21T14:07:36.454Z,39.15
2023-05-21T14:10:04.689Z,40.10
2023-05-21T14:12:34.665Z,39.26
2023-05-21T14:15:02.340Z,39.16
2023-05-21T14:17:30.094Z,39.20
2023-05-21T14:19:57.892Z,39.64
2023-05-21T14:22:25.728Z,38.51
2023-05-21T14:24:53.707Z,39.77
2023-05-21T14:27:21.592Z,37.98
2023-05-21T14:29:50.747Z,39.09
2023-05-21T14:32:19.282Z,38.34
2023-05-21T14:34:47.285Z,38.82
2023-05-21T14:37:14.972Z,38.84
2023-05-21T14:39:43.146Z,38.79
2023-05-21T14:42:10.912Z,39.04
2023-05-21T14:44:38.568Z,38.30
2023-05-21T14:47:07.617Z,38.08
2023-05-21T14:49:35.442Z,38.57
2023-05-21T14:52:03.188Z,37.75
2023-05-21T14:54:30.869Z,36.91
2023-05-21T14:56:58.551Z,37.03
2023-05-21T14:59:26.229Z,37.08
2023-05-21T15:01:54.059Z,36.77
2023-05-21T15:04:23.142Z,36.44
2023-05-21T15:06:51.456Z,36.22
2023-05-21T15:09:19.130Z,35.93
2023-05-21T15:11:46.791Z,35.74
2023-05-21T15:14:14.495Z,37.19
2023-05-21T15:16:42.363Z,37.07
2023-05-21T15:19:11.841Z,36.91
2023-05-21T15:21:41.021Z,36.62
2023-05-21T15:24:08.650Z,36.72
2023-05-21T15:26:36.534Z,37.27
2023-05-21T15:29:04.876Z,36.81
2023-05-21T15:31:32.695Z,35.46
2023-05-21T15:34:00.575Z,35.92
2023-05-21T15:36:28.282Z,35.35
2023-05-21T15:38:57.377Z,35.40
2023-05-21T15:41:25.149Z,35.81
2023-05-21T15:43:52.791Z,35.15
2023-05-21T15:46:20.582Z,35.51
2023-05-21T15:48:48.332Z,34.05
2023-05-21T15:51:16.062Z,34.69
2023-05-21T15:53:44.103Z,34.37
2023-05-21T15:56:13.205Z,34.23
2023-05-21T15:58:41.270Z,33.08
2023-05-21T16:01:09.219Z,33.14
2023-05-21T16:03:37.036Z,34.19
2023-05-21T16:06:06.461Z,34.04
2023-05-21T16:08:34.222Z,33.93
2023-05-21T16:11:02.183Z,33.67
2023-05-21T16:13:31.526Z,32.86
2023-05-21T16:16:01.007Z,31.75
2023-05-21T16:18:28.654Z,31.18
2023-05-21T16:20:56.462Z,31.68
2023-05-21T16:23:24.328Z,31.41
2023-05-21T16:25:52.121Z,31.85
2023-05-21T16:28:20.983Z,32.36
2023-05-21T16:30:50.204Z,32.16
2023-05-21T16:33:17.905Z,32.21
2023-05-21T16:35:46.474Z,32.18
2023-05-21T16:38:14.274Z,32.70
2023-05-21T16:40:42.158Z,32.26
2023-05-21T16:43:10.001Z,32.92
2023-05-21T16:45:42.425Z,32.70
2023-05-21T16:48:12.123Z,33.12
2023-05-21T16:50:40.312Z,33.43
2023-05-21T16:53:09.808Z,33.48
2023-05-21T16:55:38.697Z,33.79
2023-05-21T16:58:09.170Z,33.27
2023-05-21T17:00:37.121Z,33.38
2023-05-21T17:03:05.241Z,34.07
2023-05-21T17:05:34.665Z,35.14
2023-05-21T17:08:02.735Z,35.36
2023-05-21T17:10:31.474Z,37.10
2023-05-21T17:13:04.018Z,36.31
2023-05-21T17:15:38.275Z,35.57
2023-05-21T17:18:06.810Z,35.56
2023-05-21T17:20:36.106Z,35.84
2023-05-21T17:23:04.090Z,36.04
2023-05-21T17:25:33.643Z,36.25
2023-05-21T17:28:02.452Z,37.53
2023-05-21T17:30:30.219Z,37.70
2023-05-21T17:32:58.300Z,38.39
2023-05-21T17:35:26.357Z,38.29
2023-05-21T17:37:55.414Z,38.19
2023-05-21T17:40:24.682Z,37.68
2023-05-21T17:42:53.109Z,37.49
2023-05-21T17:45:21.140Z,38.34
2023-05-21T17:47:49.258Z,38.57
2023-05-21T17:50:17.200Z,38.28
2023-05-21T17:52:44.993Z,39.01
2023-05-21T17:55:14.462Z,39.48
2023-05-21T17:57:42.186Z,40.49
2023-05-21T18:00:12.373Z,41.22
2023-05-21T18:02:40.289Z,41.92
2023-05-21T18:05:08.512Z,42.84
2023-05-21T18:07:36.506Z,43.95
2023-05-21T18:10:04.722Z,44.58
2023-05-21T18:12:33.922Z,44.69
2023-05-21T18:15:02.630Z,44.52
2023-05-21T18:17:30.793Z,44.75
2023-05-21T18:19:58.699Z,45.29
2023-05-21T18:22:26.451Z,45.23
2023-05-21T18:24:54.226Z,44.59
2023-05-21T18:27:21.972Z,45.15
2023-05-21T18:29:51.374Z,45.54
2023-05-21T18:32:19.393Z,46.53
2023-05-21T18:34:48.457Z,47.40
2023-05-21T18:37:16.982Z,47.17
2023-05-21T18:39:45.282Z,48.61
2023-05-21T18:42:14.251Z,49.74
2023-05-21T18:44:42.331Z,50.63
2023-05-21T18:47:12.720Z,51.05
2023-05-21T18:49:40.469Z,51.96
2023-05-21T18:52:09.071Z,52.61
2023-05-21T18:54:37.196Z,53.67
2023-05-21T18:57:05.470Z,54.40
2023-05-21T18:59:33.466Z,54.59
2023-05-21T19:02:01.618Z,55.59
2023-05-21T19:04:31.281Z,56.05
2023-05-21T19:06:59.431Z,56.38
2023-05-21T19:09:27.348Z,56.69
2023-05-21T19:11:55.474Z,56.94
2023-05-21T19:14:23.277Z,57.35
2023-05-21T19:16:51.130Z,57.71
2023-05-21T19:19:19.160Z,58.23
2023-05-21T19:21:48.490Z,58.90
2023-05-21T19:24:16.386Z,59.77
2023-05-21T19:26:44.262Z,59.95
2023-05-21T19:29:12.126Z,60.42
2023-05-21T19:31:40.428Z,61.06
2023-05-21T19:34:10.695Z,61.06
2023-05-21T19:36:52.429Z,61.63
2023-05-21T19:39:22.832Z,61.58
2023-05-21T19:41:51.774Z,62.08
2023-05-21T19:44:20.025Z,62.39
2023-05-21T19:46:49.148Z,63.15
2023-05-21T19:49:16.998Z,63.27
2023-05-21T19:51:45.772Z,63.72
2023-05-21T19:54:14.488Z,63.89
2023-05-21T19:56:43.916Z,64.37
2023-05-21T19:59:12.586Z,64.41
2023-05-21T20:01:43.197Z,64.62
2023-05-21T20:04:11.294Z,64.49
2023-05-21T20:06:39.781Z,64.58
2023-05-21T20:09:08.625Z,64.69
2023-05-21T20:11:37.148Z,64.98
2023-05-21T20:14:06.588Z,65.51
2023-05-21T20:16:34.561Z,65.90
2023-05-21T20:19:03.916Z,66.17
2023-05-21T20:21:32.529Z,67.31
2023-05-21T20:24:01.136Z,67.66
2023-05-21T20:26:29.694Z,67.20
2023-05-21T20:28:57.814Z,67.16
2023-05-21T20:31:27.532Z,67.99
2023-05-21T20:33:55.593Z,68.17
2023-05-21T20:36:24.022Z,68.21
2023-05-21T20:38:52.250Z,68.46
2023-05-21T20:41:20.635Z,68.86
2023-05-21T20:43:48.554Z,69.17
2023-05-21T20:46:17.491Z,69.62
2023-05-21T20:48:47.309Z,69.82
2023-05-21T20:51:15.296Z,70.75
2023-05-21T20:53:43.275Z,70.24
2023-05-21T20:56:14.727Z,71.04
2023-05-21T20:58:42.632Z,71.35
2023-05-21T21:01:10.922Z,72.06
2023-05-21T21:03:41.297Z,72.09
2023-05-21T21:06:10.802Z,72.29
2023-05-21T21:08:40.304Z,72.56
2023-05-21T21:11:09.079Z,73.13
2023-05-21T21:13:37.328Z,73.53
2023-05-21T21:16:06.076Z,73.10
2023-05-21T21:18:34.102Z,72.88
2023-05-21T21:21:02.121Z,72.97
2023-05-21T21:23:31.437Z,73.21
2023-05-21T21:25:59.425Z,73.55
2023-05-21T21:28:27.302Z,73.15
2023-05-21T21:30:55.455Z,73.57
2023-05-21T21:33:24.400Z,73.94
2023-05-21T21:35:52.716Z,74.03
2023-05-21T21:38:20.689Z,74.12
2023-05-21T21:40:50.100Z,74.55
2023-05-21T21:43:18.324Z,74.54
2023-05-21T21:45:46.335Z,74.52
2023-05-21T21:48:14.227Z,75.04
2023-05-21T21:50:42.372Z,75.23
2023-05-21T21:53:12.650Z,75.62
2023-05-21T21:55:40.570Z,75.47
2023-05-21T21:58:09.968Z,75.08
2023-05-21T22:00:38.030Z,76.05
2023-05-21T22:03:06.335Z,76.37
2023-05-21T22:05:34.372Z,76.10
2023-05-21T22:08:03.707Z,76.09
2023-05-21T22:10:33.572Z,76.30
2023-05-21T22:13:02.732Z,76.40
2023-05-21T22:15:32.410Z,76.66
2023-05-21T22:18:02.462Z,76.89
2023-05-21T22:20:30.771Z,76.88
2023-05-21T22:22:59.132Z,77.24
2023-05-21T22:25:26.897Z,77.42
2023-05-21T22:27:54.713Z,77.53
2023-05-21T22:30:22.487Z,77.30
2023-05-21T22:32:51.670Z,77.44
2023-05-21T22:35:20.164Z,77.73
2023-05-21T22:37:47.877Z,78.30
2023-05-21T22:40:15.670Z,79.09
2023-05-21T22:42:45.862Z,78.73
2023-05-21T22:45:15.341Z,79.05
2023-05-21T22:47:43.125Z,79.07
2023-05-21T22:50:13.110Z,79.20
2023-05-21T22:52:41.994Z,79.22
2023-05-21T22:55:11.502Z,79.12
2023-05-21T22:57:39.349Z,78.93
2023-05-21T23:00:10.616Z,78.70
2023-05-21T23:02:38.475Z,78.59
2023-05-21T23:05:06.619Z,78.66
2023-05-21T23:07:35.745Z,79.21
2023-05-21T23:10:03.777Z,79.20
2023-05-21T23:12:31.489Z,79.36
2023-05-21T23:14:59.276Z,79.95
2023-05-21T23:17:27.011Z,79.74
2023-05-21T23:19:54.752Z,80.03
2023-05-21T23:22:22.744Z,80.30
2023-05-21T23:24:52.171Z,80.14
2023-05-21T23:27:20.072Z,80.49
2023-05-21T23:29:47.826Z,80.32
2023-05-21T23:32:15.953Z,80.16
2023-05-21T23:34:43.898Z,80.50
2023-05-21T23:37:11.873Z,80.98
2023-05-21T23:39:39.809Z,80.70
2023-05-21T23:42:09.299Z,80.99
2023-05-21T23:44:37.090Z,81.32
2023-05-21T23:47:05.073Z,81.71
2023-05-21T23:49:32.814Z,81.80
2023-05-21T23:52:01.664Z,81.87
2023-05-21T23:54:29.382Z,81.81
2023-05-21T23:56:57.170Z,82.25
2023-05-21T23:59:26.502Z,82.48
